Time;durP1;ratioP1;P1;durP2;ratioP2;P2;SDS_P1;SDS_P2;PMS_P1;PMS_P2;Temp;Humidity;BMP_temperature;BMP_pressure;BME280_temperature;BME280_humidity;BME280_pressure;Samples;Min_cycle;Max_cycle;Signal;HPM_P1;HPM_P2
2022/02/04 00:06:41;;;;;;;38.10;20.37;;;6.00;99.90;;;;;;5089178;28;20601;-60
2022/02/04 00:09:18;;;;;;;34.87;19.23;;;6.00;99.90;;;;;;5088965;28;20213;-59
2022/02/04 00:20:26;;;;;;;36.40;18.73;;;6.00;99.90;;;;;;5089215;28;20207;-57
2022/02/04 00:23:05;;;;;;;35.87;19.90;;;6.00;99.90;;;;;;5088920;28;20224;-59
2022/02/04 00:25:44;;;;;;;35.43;18.83;;;6.10;99.90;;;;;;5088922;28;20318;-60
2022/02/04 00:28:16;;;;;;;35.90;19.03;;;6.20;99.90;;;;;;5089095;28;20210;-58
2022/02/04 00:30:48;;;;;;;33.17;18.23;;;6.20;99.90;;;;;;5088927;28;20204;-59
2022/02/04 00:33:16;;;;;;;31.97;18.70;;;6.20;99.90;;;;;;5088810;28;20225;-57
2022/02/04 00:35:54;;;;;;;30.93;18.70;;;6.20;99.90;;;;;;5089308;28;20317;-59
2022/02/04 00:38:28;;;;;;;32.93;19.63;;;6.20;99.90;;;;;;5089193;28;20244;-59
2022/02/04 00:41:01;;;;;;;30.60;18.13;;;6.20;99.90;;;;;;5089128;28;20291;-61
2022/02/04 00:43:29;;;;;;;35.23;19.10;;;6.20;99.90;;;;;;5088723;28;20227;-60
2022/02/04 00:46:02;;;;;;;32.30;18.53;;;6.20;99.90;;;;;;5088648;28;20777;-56
2022/02/04 00:48:37;;;;;;;31.70;18.77;;;6.20;99.90;;;;;;5088842;28;20208;-60
2022/02/04 00:51:10;;;;;;;35.07;19.67;;;6.20;99.90;;;;;;5088559;28;20297;-60
2022/02/04 00:53:48;;;;;;;33.00;18.03;;;6.20;99.90;;;;;;5088550;28;20282;-58
2022/02/04 00:56:22;;;;;;;31.87;18.30;;;6.30;99.90;;;;;;5088082;28;20212;-60
2022/02/04 01:26:21;;;;;;;31.23;17.70;;;6.20;99.90;;;;;;5074380;28;20251;-58
2022/02/04 01:28:51;;;;;;;32.63;18.37;;;6.20;99.90;;;;;;5074229;28;20648;-60
2022/02/04 01:31:19;;;;;;;35.87;19.13;;;6.20;99.90;;;;;;5074372;28;20216;-60
2022/02/04 01:33:47;;;;;;;31.97;18.53;;;6.20;99.90;;;;;;5074156;28;20212;-58
2022/02/04 01:36:15;;;;;;;29.63;17.80;;;6.20;99.90;;;;;;5074244;28;20882;-58
2022/02/04 01:38:42;;;;;;;32.97;18.10;;;6.20;99.90;;;;;;5074024;28;20733;-60
2022/02/04 01:41:10;;;;;;;27.63;17.20;;;6.30;99.90;;;;;;5074526;28;20209;-60
2022/02/04 01:43:39;;;;;;;35.50;18.17;;;6.30;99.90;;;;;;5074401;28;20251;-57
2022/02/04 01:46:08;;;;;;;30.50;17.47;;;6.30;99.90;;;;;;5074342;28;20726;-60
2022/02/04 01:48:36;;;;;;;27.93;17.73;;;6.30;99.90;;;;;;5075464;28;20209;-60
2022/02/04 01:51:05;;;;;;;31.33;18.77;;;6.40;99.90;;;;;;5074378;28;20266;-60
2022/02/04 01:53:32;;;;;;;28.57;16.20;;;6.40;99.90;;;;;;5074638;28;20233;-57
2022/02/04 01:56:00;;;;;;;30.13;16.50;;;6.40;99.90;;;;;;5073750;28;20625;-59
2022/02/04 01:58:27;;;;;;;30.90;18.70;;;6.30;99.90;;;;;;5073799;28;20593;-57
2022/02/04 02:00:55;;;;;;;30.67;17.13;;;6.30;99.90;;;;;;5073848;28;20212;-56
2022/02/04 02:03:23;;;;;;;29.00;16.57;;;6.30;99.90;;;;;;5073917;28;20651;-58
2022/02/04 02:05:51;;;;;;;27.47;17.30;;;6.30;99.90;;;;;;5073306;28;20229;-56
2022/02/04 02:08:20;;;;;;;32.17;18.27;;;6.30;99.90;;;;;;5073674;28;20200;-56
2022/02/04 02:10:49;;;;;;;34.03;17.07;;;6.20;99.90;;;;;;5073458;28;20205;-56
2022/02/04 02:13:24;;;;;;;33.00;18.80;;;6.20;99.90;;;;;;5073371;28;20703;-58
2022/02/04 02:16:00;;;;;;;32.57;18.73;;;6.20;99.90;;;;;;5073561;28;20200;-58
2022/02/04 02:44:11;;;;;;;27.07;16.37;;;6.20;99.90;;;;;;5089513;27;20557;-57
2022/02/04 02:46:55;;;;;;;27.97;15.23;;;6.20;99.90;;;;;;5089491;28;20215;-58
2022/02/04 02:49:52;;;;;;;22.37;13.93;;;6.20;99.90;;;;;;5093120;28;20208;-57
2022/02/04 02:52:26;;;;;;;25.13;15.27;;;6.20;99.90;;;;;;5091158;28;20315;-59
2022/02/04 02:55:11;;;;;;;26.27;15.33;;;6.20;99.90;;;;;;5089203;28;20612;-58
2022/02/04 03:00:42;;;;;;;19.67;12.80;;;6.20;99.90;;;;;;5102789;28;20195;-57
2022/02/04 03:03:12;;;;;;;21.80;13.13;;;6.20;99.90;;;;;;5090281;28;20227;-59
2022/02/04 03:05:38;;;;;;;20.37;12.93;;;6.20;99.90;;;;;;5089156;28;20632;-61
2022/02/04 03:08:06;;;;;;;18.83;11.57;;;6.20;99.90;;;;;;5089281;28;20207;-60
2022/02/04 03:10:33;;;;;;;18.80;10.97;;;6.20;99.90;;;;;;5089118;28;20215;-57
2022/02/04 03:13:00;;;;;;;16.13;10.60;;;6.20;99.90;;;;;;5089305;28;20220;-58
2022/02/04 03:15:28;;;;;;;16.07;10.80;;;6.30;99.90;;;;;;5088647;28;20208;-60
2022/02/04 03:18:01;;;;;;;14.10;9.70;;;6.30;99.90;;;;;;5088653;28;20635;-60
2022/02/04 03:20:28;;;;;;;12.77;9.13;;;6.30;99.90;;;;;;5088788;28;20211;-60
2022/02/04 03:22:56;;;;;;;14.90;9.63;;;6.30;99.90;;;;;;5088453;28;20327;-60
2022/02/04 03:25:24;;;;;;;14.40;9.27;;;6.30;99.90;;;;;;5088460;28;20209;-60
2022/02/04 03:27:55;;;;;;;13.67;9.27;;;6.30;99.90;;;;;;5088963;28;20641;-58
2022/02/04 03:30:26;;;;;;;12.63;8.53;;;6.30;99.90;;;;;;5088241;28;20212;-58
2022/02/04 03:32:58;;;;;;;13.93;8.30;;;6.30;99.90;;;;;;5088748;28;20316;-59
2022/02/04 03:35:25;;;;;;;13.30;8.53;;;6.30;99.90;;;;;;5088668;28;20234;-59
2022/02/04 03:37:54;;;;;;;12.57;7.83;;;6.40;99.90;;;;;;5088162;28;20683;-60
2022/02/04 03:40:21;;;;;;;12.97;8.63;;;6.40;99.90;;;;;;5088348;28;20274;-59
2022/02/04 03:42:49;;;;;;;15.30;8.83;;;6.30;99.90;;;;;;5087704;28;20690;-57
2022/02/04 03:45:18;;;;;;;12.13;8.37;;;6.30;99.90;;;;;;5088624;28;20204;-57
2022/02/04 03:47:44;;;;;;;12.07;8.30;;;6.30;99.90;;;;;;5087667;28;20739;-59
2022/02/04 03:50:13;;;;;;;12.77;8.17;;;6.30;99.90;;;;;;5088330;28;20201;-59
2022/02/04 03:52:40;;;;;;;13.33;8.20;;;6.30;99.90;;;;;;5088004;28;20604;-60
2022/02/04 03:55:08;;;;;;;13.53;8.63;;;6.30;99.90;;;;;;5074190;28;20632;-59
2022/02/04 03:57:35;;;;;;;15.00;8.77;;;6.30;99.90;;;;;;5074487;28;20216;-58
2022/02/04 04:00:02;;;;;;;13.53;8.60;;;6.30;99.90;;;;;;5074595;28;20724;-61
2022/02/04 04:02:29;;;;;;;13.97;8.77;;;6.30;99.90;;;;;;5074153;28;20249;-60
2022/02/04 04:04:55;;;;;;;12.97;8.43;;;6.20;99.90;;;;;;5074490;28;20209;-60
2022/02/04 04:07:23;;;;;;;18.23;9.23;;;6.30;99.90;;;;;;5074244;28;20209;-59
2022/02/04 04:09:56;;;;;;;12.50;8.77;;;6.30;99.90;;;;;;5074358;28;20209;-58
2022/02/04 04:12:24;;;;;;;13.07;8.37;;;6.20;99.90;;;;;;5074499;28;20221;-60
2022/02/04 04:14:54;;;;;;;16.07;9.00;;;6.30;99.90;;;;;;5074161;28;20681;-61
2022/02/04 04:17:21;;;;;;;13.50;8.87;;;6.30;99.90;;;;;;5074091;28;20208;-61
2022/02/04 04:19:48;;;;;;;13.17;8.80;;;6.30;99.90;;;;;;5073901;28;20205;-60
2022/02/04 04:22:15;;;;;;;12.80;8.57;;;6.30;99.90;;;;;;5074018;28;20286;-59
2022/02/04 04:24:43;;;;;;;14.00;9.30;;;6.20;99.90;;;;;;5073859;28;20605;-60
2022/02/04 04:27:09;;;;;;;13.30;9.03;;;6.20;99.90;;;;;;5073944;28;20209;-61
2022/02/04 04:29:36;;;;;;;12.57;8.60;;;6.20;99.90;;;;;;5073302;28;20208;-60
2022/02/04 04:32:03;;;;;;;13.70;8.53;;;6.20;99.90;;;;;;5074027;28;20229;-61
2022/02/04 04:34:30;;;;;;;13.13;8.50;;;6.20;99.90;;;;;;5073737;28;20270;-61
2022/02/04 04:36:56;;;;;;;11.63;8.03;;;6.20;99.90;;;;;;5074063;28;20564;-60
2022/02/04 04:39:28;;;;;;;13.67;7.40;;;6.20;99.90;;;;;;5074287;28;20561;-58
2022/02/04 04:42:10;;;;;;;11.27;7.50;;;6.20;99.90;;;;;;5074043;28;20722;-58
2022/02/04 05:26:21;;;;;;;8.97;6.00;;;6.30;99.90;;;;;;5075426;28;20216;-60
2022/02/04 05:28:58;;;;;;;11.50;6.80;;;6.40;99.90;;;;;;5075597;28;20250;-60
2022/02/04 05:31:26;;;;;;;9.67;6.57;;;6.40;99.90;;;;;;5072993;28;20219;-59
2022/02/04 05:33:53;;;;;;;9.50;6.53;;;6.40;99.90;;;;;;5072831;28;20201;-60
2022/02/04 05:36:21;;;;;;;9.13;5.80;;;6.40;99.90;;;;;;5072702;28;20209;-60
2022/02/04 05:38:49;;;;;;;10.63;5.87;;;6.40;99.90;;;;;;5072559;28;20295;-59
2022/02/04 05:41:21;;;;;;;9.60;6.60;;;6.40;99.90;;;;;;5072432;28;20213;-59
2022/02/04 05:43:49;;;;;;;9.17;6.10;;;6.40;99.90;;;;;;5072494;28;20274;-58
2022/02/04 05:46:19;;;;;;;8.30;5.47;;;6.40;99.90;;;;;;5072586;28;20208;-57
2022/02/04 05:48:51;;;;;;;10.93;6.10;;;6.50;99.90;;;;;;5071248;28;20704;-59
2022/02/04 05:51:31;;;;;;;7.67;5.10;;;6.50;99.90;;;;;;5072214;28;20300;-59
2022/02/04 05:54:04;;;;;;;9.13;5.97;;;6.50;99.90;;;;;;5071814;28;20201;-61
2022/02/04 05:56:38;;;;;;;8.80;5.77;;;6.50;99.90;;;;;;5072150;28;20205;-62
2022/02/04 05:59:13;;;;;;;8.73;5.47;;;6.50;99.90;;;;;;5072300;28;20204;-58
2022/02/04 06:01:48;;;;;;;8.37;5.73;;;6.50;99.90;;;;;;5072112;28;20224;-58
2022/02/04 06:04:31;;;;;;;8.23;5.30;;;6.60;99.90;;;;;;5071791;28;20285;-58
2022/02/04 06:10:10;;;;;;;6.73;4.80;;;6.50;99.90;;;;;;5078016;28;20578;-61
2022/02/04 06:13:04;;;;;;;6.37;5.20;;;6.50;99.90;;;;;;5074583;28;20278;-60
2022/02/04 06:23:44;;;;;;;7.13;4.67;;;6.50;99.90;;;;;;5083438;28;20232;-61
2022/02/04 06:26:10;;;;;;;8.27;4.90;;;6.60;99.90;;;;;;5073367;28;20292;-60
2022/02/04 06:28:38;;;;;;;7.03;4.80;;;6.60;99.90;;;;;;5072143;28;20205;-60
2022/02/04 06:31:05;;;;;;;8.97;5.83;;;6.50;99.90;;;;;;5071726;28;20208;-63
2022/02/04 06:33:32;;;;;;;7.73;5.17;;;6.60;99.90;;;;;;5071374;28;20221;-59
2022/02/04 06:36:00;;;;;;;6.97;4.60;;;6.60;99.90;;;;;;5065336;28;20213;-60
2022/02/04 06:38:27;;;;;;;6.90;4.83;;;6.60;99.90;;;;;;5069259;28;20219;-61
2022/02/04 06:40:54;;;;;;;7.23;4.60;;;6.60;99.90;;;;;;5071471;28;20201;-60
2022/02/04 06:43:21;;;;;;;8.43;5.00;;;6.70;99.90;;;;;;5071093;28;20282;-61
2022/02/04 06:45:48;;;;;;;7.03;4.57;;;6.70;99.90;;;;;;5071325;28;20197;-61
2022/02/04 06:48:14;;;;;;;5.93;3.83;;;6.70;99.90;;;;;;5071188;28;20212;-60
2022/02/04 06:50:41;;;;;;;6.93;4.20;;;6.60;99.90;;;;;;5072078;28;20209;-63
2022/02/04 06:53:09;;;;;;;7.63;4.37;;;6.70;99.90;;;;;;5071092;28;20221;-63
2022/02/04 06:55:36;;;;;;;6.23;4.30;;;6.70;99.90;;;;;;5071715;28;20213;-62
2022/02/04 06:58:03;;;;;;;6.13;3.93;;;6.70;99.90;;;;;;5071453;28;20212;-62
2022/02/04 07:00:30;;;;;;;5.67;4.47;;;6.70;99.90;;;;;;5071179;28;20221;-61
2022/02/04 07:02:57;;;;;;;4.97;3.40;;;6.80;99.90;;;;;;5071392;28;20225;-62
2022/02/04 07:05:24;;;;;;;5.90;3.70;;;6.80;99.90;;;;;;5071194;28;20204;-63
2022/02/04 07:08:00;;;;;;;6.67;3.93;;;6.80;99.90;;;;;;5071233;28;20205;-63
2022/02/04 07:10:36;;;;;;;7.07;4.43;;;6.80;99.90;;;;;;5070908;28;20304;-61
2022/02/04 07:13:12;;;;;;;5.87;4.30;;;6.90;99.90;;;;;;5071156;28;20262;-62
2022/02/04 07:15:55;;;;;;;5.47;3.70;;;6.90;99.90;;;;;;5071118;28;20205;-63
2022/02/04 07:21:07;;;;;;;7.53;4.27;;;6.90;99.90;;;;;;5071067;28;20725;-60
2022/02/04 07:23:35;;;;;;;10.10;4.23;;;6.90;99.90;;;;;;5070631;28;20228;-60
2022/02/04 07:26:05;;;;;;;4.97;3.50;;;6.90;99.90;;;;;;5070606;28;20681;-60
2022/02/04 07:28:32;;;;;;;6.57;4.03;;;6.90;99.90;;;;;;5071510;28;20209;-59
2022/02/04 07:31:00;;;;;;;8.03;4.10;;;6.90;99.90;;;;;;5074856;28;20209;-62
2022/02/04 07:33:39;;;;;;;4.47;3.23;;;6.90;99.90;;;;;;5074424;28;20225;-62
2022/02/04 07:40:52;;;;;;;6.80;3.80;;;6.90;99.90;;;;;;5074476;28;20290;-63
2022/02/04 07:41:40;;;;;;;5.67;3.40;;;6.90;99.90;;;;;;5076397;28;20653;-62
2022/02/04 07:44:06;;;;;;;4.77;3.60;;;6.90;99.90;;;;;;5074690;28;20671;-62
2022/02/04 07:46:34;;;;;;;6.27;4.10;;;6.90;99.90;;;;;;5074517;28;20242;-63
2022/02/04 07:49:01;;;;;;;5.47;4.00;;;6.90;99.90;;;;;;5074955;28;20208;-64
2022/02/04 07:51:27;;;;;;;6.80;4.23;;;6.90;99.90;;;;;;5075137;28;20579;-63
2022/02/04 07:53:54;;;;;;;4.77;3.50;;;6.90;99.90;;;;;;5074990;28;20554;-62
2022/02/04 07:56:23;;;;;;;8.07;3.73;;;6.90;99.90;;;;;;5073689;28;20216;-61
2022/02/04 07:58:57;;;;;;;4.70;3.53;;;7.00;99.90;;;;;;5074509;28;20205;-63
2022/02/04 08:01:28;;;;;;;5.43;3.60;;;7.00;99.90;;;;;;5078325;28;20622;-59
2022/02/04 08:04:01;;;;;;;5.23;3.00;;;7.00;99.90;;;;;;5074470;28;20574;-59
2022/02/04 08:06:30;;;;;;;5.40;3.50;;;7.00;99.90;;;;;;5074191;28;20281;-61
2022/02/04 08:09:04;;;;;;;4.73;3.73;;;7.10;99.90;;;;;;5074785;28;20213;-58
2022/02/04 08:11:51;;;;;;;6.50;3.70;;;7.10;99.90;;;;;;5073899;28;20205;-61
2022/02/04 08:14:42;;;;;;;4.53;3.50;;;7.10;99.90;;;;;;5074503;28;20205;-59
2022/02/04 08:17:27;;;;;;;5.53;3.00;;;7.10;99.90;;;;;;5074004;28;20209;-61
2022/02/04 08:20:31;;;;;;;5.20;3.67;;;7.20;99.90;;;;;;5073767;28;20236;-60
2022/02/04 08:23:18;;;;;;;5.50;3.27;;;7.20;99.90;;;;;;5073442;28;20225;-62
2022/02/04 08:29:06;;;;;;;5.73;3.40;;;7.20;99.90;;;;;;5057913;28;20204;-59
2022/02/04 08:31:54;;;;;;;5.40;3.33;;;7.30;99.90;;;;;;5074110;28;20208;-62
2022/02/04 08:34:42;;;;;;;4.27;3.10;;;7.30;99.90;;;;;;5073515;28;20222;-58
2022/02/04 08:50:59;;;;;;;5.37;3.07;;;7.30;99.90;;;;;;5072588;28;20208;-60
2022/02/04 08:56:06;;;;;;;4.70;2.83;;;7.30;99.90;;;;;;5063700;28;20201;-61
2022/02/04 08:58:36;;;;;;;4.57;3.20;;;7.40;99.90;;;;;;5073231;28;20212;-60
2022/02/04 09:01:08;;;;;;;5.67;3.17;;;7.30;99.90;;;;;;5072957;28;20212;-57
2022/02/04 09:03:48;;;;;;;4.63;3.03;;;7.30;99.90;;;;;;5072666;28;20251;-62
2022/02/04 09:06:19;;;;;;;4.97;3.27;;;7.30;99.90;;;;;;5073904;28;20318;-62
2022/02/04 09:08:49;;;;;;;4.47;3.40;;;7.30;99.90;;;;;;5073301;28;20653;-61
2022/02/04 09:11:27;;;;;;;4.47;3.47;;;7.40;99.90;;;;;;5073145;28;20209;-61
2022/02/04 09:17:03;;;;;;;5.80;3.90;;;7.30;99.90;;;;;;5072878;28;20286;-62
2022/02/04 09:19:44;;;;;;;4.93;3.23;;;7.20;99.90;;;;;;5072345;28;20212;-62
2022/02/04 09:22:22;;;;;;;5.77;3.57;;;7.20;99.90;;;;;;5072414;28;20221;-61
2022/02/04 09:24:49;;;;;;;6.60;3.90;;;7.20;99.90;;;;;;5072250;28;20237;-61
2022/02/04 09:27:15;;;;;;;4.57;3.57;;;7.20;99.90;;;;;;5072338;28;20205;-65
2022/02/04 09:29:42;;;;;;;6.70;3.60;;;7.20;99.90;;;;;;5072239;28;20205;-62
2022/02/04 09:32:09;;;;;;;5.67;3.73;;;7.20;99.90;;;;;;5072420;28;20262;-62
2022/02/04 09:34:37;;;;;;;6.57;4.20;;;7.10;99.90;;;;;;5072369;28;20197;-61
2022/02/04 09:37:04;;;;;;;5.20;3.90;;;7.20;99.90;;;;;;5074789;28;20213;-62
2022/02/04 09:39:31;;;;;;;5.30;4.00;;;7.20;99.90;;;;;;5076538;28;20562;-62
2022/02/04 09:41:58;;;;;;;4.77;3.43;;;7.10;99.90;;;;;;5072125;28;20232;-63
2022/02/04 09:44:24;;;;;;;5.23;4.30;;;7.10;99.90;;;;;;5072774;28;20232;-61
2022/02/04 09:46:55;;;;;;;6.20;4.40;;;7.10;99.90;;;;;;5071982;28;20205;-61
2022/02/04 09:49:27;;;;;;;7.03;4.63;;;7.10;99.90;;;;;;5075747;28;20209;-63
2022/02/04 10:14:59;;;;;;;6.10;4.60;;;7.00;99.90;;;;;;5071605;28;20558;-62
2022/02/04 10:17:26;;;;;;;7.70;5.53;;;6.90;99.90;;;;;;5071592;28;20208;-62
2022/02/04 10:19:57;;;;;;;7.87;5.00;;;6.90;99.90;;;;;;5071552;28;20574;-63
2022/02/04 10:22:26;;;;;;;7.03;4.77;;;7.00;99.90;;;;;;5071641;28;20225;-60
2022/02/04 10:25:04;;;;;;;6.80;4.47;;;6.90;99.90;;;;;;5071236;28;20237;-63
2022/02/04 10:27:33;;;;;;;6.83;4.33;;;7.00;99.90;;;;;;5071091;28;20578;-63
2022/02/04 10:30:02;;;;;;;6.93;4.70;;;7.10;99.90;;;;;;5071773;28;20637;-64
2022/02/04 10:32:43;;;;;;;5.70;4.80;;;7.10;99.90;;;;;;5071166;28;20235;-63
2022/02/04 10:35:18;;;;;;;7.53;4.10;;;7.10;99.90;;;;;;5071785;28;20292;-64
2022/02/04 10:38:04;;;;;;;6.60;3.90;;;7.20;99.90;;;;;;5071636;28;20209;-64
2022/02/04 10:40:43;;;;;;;4.73;3.67;;;7.30;99.90;;;;;;5072231;28;20740;-64
2022/02/04 10:43:27;;;;;;;4.80;3.47;;;7.30;99.90;;;;;;5072081;28;20612;-62
2022/02/04 10:46:01;;;;;;;6.07;3.47;;;7.30;99.90;;;;;;5071104;28;20205;-63
2022/02/04 10:54:33;;;;;;;5.30;3.40;;;7.40;99.90;;;;;;5071036;28;20765;-62
2022/02/04 11:00:00;;;;;;;3.43;2.70;;;7.40;99.90;;;;;;5057843;28;20232;-61
2022/02/04 11:02:53;;;;;;;3.37;2.70;;;7.50;99.90;;;;;;5071158;28;21030;-61
2022/02/04 11:05:27;;;;;;;2.93;2.67;;;7.40;99.90;;;;;;5074715;28;20220;-59
2022/02/04 11:36:35;;;;;;;3.53;2.93;;;7.70;99.90;;;;;;5074507;28;20215;-64
2022/02/04 11:53:34;;;;;;;3.43;2.27;;;7.90;99.90;;;;;;5074495;28;20217;-64
2022/02/04 11:56:01;;;;;;;2.87;2.20;;;7.90;99.90;;;;;;5074477;28;20241;-63
2022/02/04 11:58:28;;;;;;;3.13;2.17;;;7.90;99.90;;;;;;5074461;28;20210;-63
2022/02/04 12:01:04;;;;;;;2.60;2.30;;;7.90;99.90;;;;;;5074507;28;20606;-62
2022/02/04 12:03:36;;;;;;;2.20;2.00;;;7.90;99.90;;;;;;5074236;28;20224;-63
2022/02/04 12:06:04;;;;;;;2.17;1.80;;;8.00;99.90;;;;;;5073779;28;20247;-63
2022/02/04 12:08:31;;;;;;;3.37;1.47;;;8.00;99.90;;;;;;5074076;28;20212;-63
2022/02/04 12:11:08;;;;;;;1.40;1.20;;;7.80;99.90;;;;;;5073961;28;20210;-64
2022/02/04 12:14:10;;;;;;;1.33;1.23;;;7.70;99.90;;;;;;5073900;28;20224;-63
2022/02/04 12:16:56;;;;;;;2.77;1.40;;;7.70;99.90;;;;;;5073680;28;20206;-64
2022/02/04 12:19:36;;;;;;;1.03;0.83;;;7.80;69.50;;;;;;5073911;28;20208;-62
2022/02/04 12:22:02;;;;;;;1.17;1.00;;;7.80;28.50;;;;;;5073949;28;20260;-61
2022/02/04 12:24:38;;;;;;;2.00;0.93;;;7.80;38.50;;;;;;5074103;28;20248;-62
2022/02/04 12:27:35;;;;;;;0.97;0.87;;;7.90;4.20;;;;;;5073316;28;20580;-61
2022/02/04 12:30:44;;;;;;;1.33;1.13;;;7.80;18.60;;;;;;5073957;28;20640;-61
2022/02/04 12:33:14;;;;;;;1.47;1.00;;;7.80;4.30;;;;;;5073776;28;20225;-61
2022/02/04 12:35:42;;;;;;;1.20;1.03;;;7.80;14.20;;;;;;5074008;28;20232;-61
2022/02/04 12:38:09;;;;;;;2.43;1.00;;;7.90;16.10;;;;;;5073582;28;20745;-60
2022/02/04 12:40:35;;;;;;;1.07;0.97;;;7.90;9.90;;;;;;5073788;28;20267;-62
2022/02/04 12:43:02;;;;;;;3.53;1.10;;;7.90;18.40;;;;;;5073327;28;20233;-63
2022/02/04 12:45:29;;;;;;;2.27;1.13;;;7.90;1.00;;;;;;5073197;28;20260;-62
2022/02/04 12:48:05;;;;;;;2.03;0.90;;;7.90;2.10;;;;;;5072933;28;20240;-63
2022/02/04 12:50:32;;;;;;;2.33;1.40;;;7.80;8.70;;;;;;5073579;28;20224;-63
2022/02/04 12:53:00;;;;;;;1.50;1.20;;;7.80;13.20;;;;;;5073875;28;20262;-62
2022/02/04 12:55:36;;;;;;;1.57;1.20;;;7.80;24.20;;;;;;5073255;28;20297;-62
2022/02/04 12:58:14;;;;;;;2.50;1.20;;;7.80;33.90;;;;;;5073499;28;20241;-62
2022/02/04 13:07:29;;;;;;;1.70;1.23;;;7.70;34.50;;;;;;5073175;28;20224;-61
2022/02/04 13:09:50;;;;;;;2.97;1.60;;;7.70;25.00;;;;;;5013895;28;20735;-61
2022/02/04 13:12:18;;;;;;;2.13;1.70;;;7.60;37.80;;;;;;5010517;28;20742;-61
2022/02/04 13:14:49;;;;;;;2.27;1.80;;;7.70;10.40;;;;;;5050282;28;20201;-61
2022/02/04 13:17:30;;;;;;;2.13;1.67;;;7.70;16.60;;;;;;5077160;28;20209;-63
2022/02/04 13:19:57;;;;;;;1.97;1.57;;;7.70;8.40;;;;;;5074457;28;20217;-62
2022/02/04 13:22:24;;;;;;;1.97;1.70;;;7.80;5.00;;;;;;5073124;28;20237;-63
2022/02/04 13:25:10;;;;;;;3.20;2.20;;;7.80;4.90;;;;;;5072324;28;20222;-63
2022/02/04 13:27:37;;;;;;;2.00;1.50;;;7.80;5.80;;;;;;5071387;28;20209;-63
2022/02/04 13:30:28;;;;;;;2.33;1.97;;;7.80;1.00;;;;;;5072633;28;20210;-65
2022/02/04 13:32:55;;;;;;;3.10;2.10;;;7.80;1.00;;;;;;5057358;28;20227;-63
2022/02/04 13:35:28;;;;;;;2.37;1.83;;;7.90;1.00;;;;;;5072122;28;20213;-64
2022/02/04 13:37:59;;;;;;;1.77;1.50;;;7.90;1.00;;;;;;5072029;28;20205;-65
2022/02/04 13:40:55;;;;;;;2.07;1.70;;;7.90;1.00;;;;;;5072059;28;20217;-67
2022/02/04 13:43:34;;;;;;;2.10;1.77;;;7.80;9.70;;;;;;5072056;28;20239;-64
2022/02/04 13:46:09;;;;;;;2.77;2.03;;;7.80;10.00;;;;;;5071741;28;20222;-62
2022/02/04 13:48:56;;;;;;;4.43;2.50;;;7.90;1.00;;;;;;5072615;28;20620;-61
2022/02/04 13:51:40;;;;;;;2.13;1.83;;;7.90;1.00;;;;;;5072473;28;20233;-62
2022/02/04 13:54:29;;;;;;;2.33;1.97;;;8.10;1.00;;;;;;5072382;28;20210;-61
2022/02/04 13:57:21;;;;;;;3.27;2.20;;;8.10;1.00;;;;;;5071372;28;20219;-64
2022/02/04 14:00:10;;;;;;;2.77;2.00;;;8.20;1.00;;;;;;5072201;28;20305;-64
2022/02/04 14:02:43;;;;;;;5.27;2.77;;;8.30;1.00;;;;;;5071805;28;20608;-65
2022/02/04 14:05:11;;;;;;;2.40;1.90;;;8.20;1.00;;;;;;5072961;28;20227;-64
2022/02/04 14:07:40;;;;;;;3.33;2.33;;;8.10;1.00;;;;;;5071687;28;20217;-60
2022/02/04 14:10:29;;;;;;;2.33;2.00;;;8.20;1.00;;;;;;5072719;28;20208;-61
2022/02/04 14:13:01;;;;;;;2.63;2.20;;;8.20;1.00;;;;;;5072013;28;20267;-61
2022/02/04 14:15:29;;;;;;;2.80;2.10;;;8.20;1.00;;;;;;5052421;28;20207;-61
2022/02/04 14:17:56;;;;;;;6.83;2.40;;;8.30;1.00;;;;;;5051141;28;20303;-61
2022/02/04 14:20:24;;;;;;;3.23;2.33;;;8.40;1.00;;;;;;5052014;28;20302;-62
2022/02/04 14:22:50;;;;;;;3.80;2.13;;;8.40;1.00;;;;;;5052915;28;20241;-63
2022/02/04 14:25:17;;;;;;;3.73;2.23;;;8.30;1.00;;;;;;5052177;28;20226;-64
2022/02/04 14:27:48;;;;;;;2.40;2.03;;;8.20;1.00;;;;;;5051383;28;20205;-64
2022/02/04 14:30:21;;;;;;;3.17;2.40;;;8.10;1.00;;;;;;5051426;28;20217;-63
2022/02/04 14:32:54;;;;;;;2.70;2.20;;;8.00;1.00;;;;;;5051108;28;20851;-64
2022/02/04 14:35:29;;;;;;;3.37;2.10;;;8.00;1.00;;;;;;5051104;28;20199;-62
2022/02/04 14:54:34;;;;;;;2.73;1.80;;;7.90;1.00;;;;;;5051122;28;20703;-59
2022/02/04 15:00:19;;;;;;;5.10;1.80;;;7.90;1.00;;;;;;4989884;28;20204;-58
2022/02/04 15:02:50;;;;;;;3.10;1.70;;;7.90;1.00;;;;;;4989676;28;20229;-57
2022/02/04 15:05:21;;;;;;;2.47;1.60;;;7.80;8.70;;;;;;5026762;28;20220;-60
2022/02/04 15:07:50;;;;;;;3.87;1.87;;;7.60;24.80;;;;;;5051319;28;20287;-59
2022/02/04 15:10:27;;;;;;;2.67;1.60;;;7.60;46.70;;;;;;5051379;28;20218;-59
2022/02/04 15:12:55;;;;;;;4.93;1.63;;;7.40;75.00;;;;;;5051746;28;20641;-59
2022/02/04 15:15:22;;;;;;;3.00;1.57;;;7.30;99.90;;;;;;5051484;28;20251;-60
2022/02/04 15:17:50;;;;;;;2.33;1.57;;;7.20;99.90;;;;;;5051252;28;20671;-60
2022/02/04 15:20:17;;;;;;;3.20;1.83;;;7.10;99.90;;;;;;5051356;28;20210;-57
2022/02/04 15:22:44;;;;;;;4.70;1.80;;;7.10;99.90;;;;;;5051332;28;20323;-60
2022/02/04 15:25:18;;;;;;;3.83;1.40;;;7.10;99.90;;;;;;5051188;28;20233;-61
2022/02/04 15:27:55;;;;;;;2.37;1.50;;;7.10;99.90;;;;;;5051352;28;20293;-60
2022/02/04 15:30:26;;;;;;;3.07;1.63;;;7.00;99.90;;;;;;5051344;28;20228;-61
2022/02/04 15:32:55;;;;;;;2.73;1.47;;;7.00;99.90;;;;;;5051344;28;20599;-60
2022/02/04 15:35:22;;;;;;;3.07;1.30;;;6.90;99.90;;;;;;5051031;28;20206;-61
2022/02/04 15:37:49;;;;;;;4.97;1.40;;;6.90;99.90;;;;;;5051148;28;20232;-60
2022/02/04 15:40:16;;;;;;;5.87;1.60;;;6.80;99.90;;;;;;5051219;28;20252;-60
2022/02/04 15:42:52;;;;;;;6.17;1.50;;;6.80;99.90;;;;;;5051398;28;20263;-60
2022/02/04 15:45:51;;;;;;;2.13;1.47;;;6.70;99.90;;;;;;5050801;28;20260;-61
2022/02/04 15:48:21;;;;;;;2.73;1.60;;;6.70;99.90;;;;;;5050783;28;20694;-60
2022/02/04 15:51:01;;;;;;;3.63;1.73;;;6.60;99.90;;;;;;5053582;28;20213;-60
2022/02/04 15:53:33;;;;;;;2.60;1.60;;;6.60;99.90;;;;;;5045878;28;20849;-61
2022/02/04 15:56:18;;;;;;;2.33;1.50;;;6.70;99.90;;;;;;5054036;28;20731;-64
2022/02/04 15:59:01;;;;;;;2.63;1.60;;;6.60;99.90;;;;;;5054547;28;20206;-65
2022/02/04 16:01:44;;;;;;;4.23;1.67;;;6.70;99.90;;;;;;5054069;28;20189;-63
2022/02/04 16:04:23;;;;;;;2.23;1.60;;;6.70;99.90;;;;;;5055001;28;20206;-63
2022/02/04 16:06:50;;;;;;;5.30;1.70;;;6.80;99.90;;;;;;5055014;28;20256;-62
2022/02/04 16:09:19;;;;;;;1.83;1.10;;;6.70;99.90;;;;;;5054506;28;20213;-63
2022/02/04 16:11:54;;;;;;;2.43;1.20;;;6.80;99.90;;;;;;5054310;28;20346;-63
2022/02/04 16:14:26;;;;;;;2.13;1.20;;;6.80;99.90;;;;;;5054211;28;20697;-63
2022/02/04 16:16:56;;;;;;;3.17;1.37;;;6.80;99.90;;;;;;5054067;28;20208;-63
2022/02/04 16:19:30;;;;;;;2.00;1.07;;;6.80;99.90;;;;;;5054479;28;20212;-63
2022/02/04 16:25:14;;;;;;;5.40;1.57;;;6.80;99.90;;;;;;5053759;28;20224;-62
2022/02/04 16:30:25;;;;;;;3.83;1.70;;;6.80;99.90;;;;;;5054223;28;20208;-62
2022/02/04 16:32:51;;;;;;;2.90;1.70;;;6.80;99.90;;;;;;5054138;28;20275;-63
2022/02/04 16:35:21;;;;;;;4.30;1.47;;;6.80;99.90;;;;;;5056622;28;20206;-63
2022/02/04 16:38:00;;;;;;;2.37;1.70;;;6.80;99.90;;;;;;5054691;28;20209;-61
2022/02/04 16:40:27;;;;;;;1.80;1.33;;;6.80;99.90;;;;;;5053732;28;20696;-62
2022/02/04 16:42:54;;;;;;;2.73;1.30;;;6.80;99.90;;;;;;5055126;28;20295;-62
2022/02/04 16:45:21;;;;;;;1.70;1.53;;;6.90;99.90;;;;;;5058058;28;20233;-62
2022/02/04 16:47:50;;;;;;;2.33;1.57;;;6.80;99.90;;;;;;5054667;28;20217;-61
2022/02/04 16:50:21;;;;;;;1.27;1.00;;;6.80;99.90;;;;;;5053693;28;20654;-61
2022/02/04 16:52:48;;;;;;;2.10;1.47;;;6.80;99.90;;;;;;5053105;28;20260;-61
2022/02/04 16:55:15;;;;;;;4.17;1.77;;;6.80;99.90;;;;;;5053547;28;20664;-60
2022/02/04 16:57:42;;;;;;;2.73;2.43;;;6.80;99.90;;;;;;5053179;28;20736;-62
2022/02/04 17:00:21;;;;;;;1.40;1.30;;;6.50;99.90;;;;;;5053304;28;20206;-63
2022/02/04 17:02:49;;;;;;;2.03;1.30;;;6.00;99.90;;;;;;5052481;28;20225;-59
2022/02/04 17:05:18;;;;;;;1.30;1.20;;;5.30;99.90;;;;;;5053027;28;20301;-62
2022/02/04 17:07:53;;;;;;;1.73;1.40;;;4.90;99.90;;;;;;5052780;28;20217;-62
2022/02/04 17:10:26;;;;;;;1.47;1.30;;;4.60;99.90;;;;;;5053163;28;20243;-61
2022/02/04 17:12:58;;;;;;;2.13;1.90;;;4.50;99.90;;;;;;5052522;28;20331;-61
2022/02/04 17:15:25;;;;;;;1.67;1.30;;;4.20;99.90;;;;;;5052897;28;20757;-63
2022/02/04 17:17:52;;;;;;;2.73;1.27;;;4.10;99.90;;;;;;5052769;28;20207;-62
2022/02/04 17:20:19;;;;;;;2.20;1.47;;;4.00;99.90;;;;;;5052719;28;20214;-61
2022/02/04 17:22:47;;;;;;;2.20;1.20;;;4.00;99.90;;;;;;5052806;28;20234;-62
2022/02/04 17:25:14;;;;;;;1.90;1.70;;;3.90;99.90;;;;;;5052672;28;20292;-60
2022/02/04 17:27:44;;;;;;;5.80;2.40;;;3.90;99.90;;;;;;5052651;28;20211;-62
2022/02/04 17:30:14;;;;;;;2.73;2.43;;;3.90;99.90;;;;;;5052557;28;20631;-61
2022/02/04 17:32:42;;;;;;;3.80;3.07;;;3.90;99.90;;;;;;5052615;28;20249;-60
2022/02/04 17:35:10;;;;;;;3.50;3.00;;;3.90;99.90;;;;;;5052518;28;20419;-60
2022/02/04 17:37:37;;;;;;;2.77;2.30;;;3.80;99.90;;;;;;5052432;28;20215;-60